Terminal Aerodrome Forecast
Issued by NWS Charleston, WV

Current Version | Previous Version | Text Only | Print | Product List | Glossary Off
Versions: 1 2 3 4 5 6 7 8 9 10 11 12 13 14 15 16 17 18 19 20 21 22 23 24 25 26 27

481
FTUS41 KRLX 242347
TAFHTS
TAF
KHTS 242347Z 2500/2524 24003KT P6SM FEW250
     FM250500 00000KT 5SM BR FEW250
     FM251000 00000KT 2SM BR BKN003
     FM251300 VRB03KT 6SM BR BKN250
     FM251500 VRB03KT P6SM SCT025
     FM251600 25004KT P6SM SCT250
     FM251800 24005KT P6SM SCT040
     FM252300 30005KT 6SM SHRA VCTS BKN050CB=

USA.gov is the U.S. government's official web portal to all federal, state and local government web resources and services.